createdAt,value
2023-02-03T00:02:23.608Z,4.36
2023-02-03T00:07:25.486Z,4.42
2023-02-03T00:12:28.941Z,4.24
2023-02-03T00:17:30.500Z,4.52
2023-02-03T00:22:32.082Z,4.21
2023-02-03T00:27:35.029Z,4.52
2023-02-03T00:32:36.585Z,4.51
2023-02-03T00:37:38.106Z,4.43
2023-02-03T00:42:41.033Z,4.79
2023-02-03T00:47:42.648Z,4.64
2023-02-03T00:52:44.126Z,4.22
2023-02-03T00:57:47.111Z,4.32
2023-02-03T01:02:48.822Z,4.25
2023-02-03T01:07:50.440Z,4.12
2023-02-03T01:12:53.388Z,4.47
2023-02-03T01:17:56.233Z,4.61
2023-02-03T01:22:57.797Z,3.88
2023-02-03T01:28:00.779Z,4.05
2023-02-03T01:33:02.365Z,3.64
2023-02-03T01:38:03.932Z,4.03
2023-02-03T01:43:09.173Z,4.00
2023-02-03T01:48:10.664Z,4.12
2023-02-03T01:53:12.232Z,3.90
2023-02-03T01:58:18.700Z,3.88
2023-02-03T02:03:23.343Z,4.40
2023-02-03T02:08:25.034Z,4.09
2023-02-03T02:13:31.514Z,3.70
2023-02-03T02:19:00.857Z,3.91
2023-02-03T02:24:26.722Z,3.88
2023-02-03T02:29:50.045Z,3.95
2023-02-03T02:35:02.272Z,3.93
2023-02-03T02:40:14.785Z,4.21
2023-02-03T02:45:21.875Z,4.08
2023-02-03T02:50:28.412Z,3.90
2023-02-03T02:55:33.659Z,4.12
2023-02-03T03:00:36.324Z,3.95
2023-02-03T03:05:41.605Z,3.97
2023-02-03T03:10:44.910Z,4.11
2023-02-03T03:15:48.736Z,4.00
2023-02-03T03:20:55.917Z,4.29
2023-02-03T03:26:05.023Z,4.03
2023-02-03T03:31:06.595Z,4.52
2023-02-03T03:36:19.520Z,4.57
2023-02-03T03:41:30.533Z,4.62
2023-02-03T03:46:38.405Z,4.75
2023-02-03T03:51:44.391Z,4.58
2023-02-03T03:56:51.503Z,4.40
2023-02-03T04:01:53.514Z,4.67
2023-02-03T04:06:56.401Z,4.73
2023-02-03T04:11:58.201Z,4.66
2023-02-03T04:17:00.156Z,4.64
2023-02-03T04:22:03.081Z,4.46
2023-02-03T04:27:05.426Z,4.39
2023-02-03T04:32:07.111Z,4.52
2023-02-03T04:37:10.051Z,4.29
2023-02-03T04:42:11.598Z,4.33
2023-02-03T04:47:13.282Z,3.94
2023-02-03T04:52:16.378Z,4.41
2023-02-03T04:57:18.102Z,4.34
2023-02-03T05:02:19.632Z,4.32
2023-02-03T05:07:22.528Z,4.56
2023-02-03T05:12:24.065Z,4.29
2023-02-03T05:17:25.670Z,4.29
2023-02-03T05:22:28.571Z,4.17
2023-02-03T05:27:30.223Z,4.06
2023-02-03T05:32:31.836Z,4.02
2023-02-03T05:37:34.684Z,4.00
2023-02-03T05:42:36.158Z,4.01
2023-02-03T05:47:37.739Z,4.03
2023-02-03T05:52:40.650Z,3.84
2023-02-03T05:57:42.198Z,3.88
2023-02-03T06:02:43.676Z,3.84
2023-02-03T06:07:46.605Z,3.85
2023-02-03T06:12:48.364Z,3.87
2023-02-03T06:17:49.941Z,3.82
2023-02-03T06:22:52.795Z,3.86
2023-02-03T06:27:54.333Z,3.80
2023-02-03T06:32:55.993Z,3.79
2023-02-03T06:37:58.920Z,3.77
2023-02-03T06:43:00.520Z,3.54
2023-02-03T06:48:02.012Z,3.70
2023-02-03T06:53:04.904Z,3.64
2023-02-03T06:58:06.395Z,3.60
2023-02-03T07:03:07.967Z,3.48
2023-02-03T07:08:10.822Z,3.48
2023-02-03T07:13:12.325Z,3.68
2023-02-03T07:18:18.032Z,3.56
2023-02-03T07:23:24.349Z,3.60
2023-02-03T07:28:25.910Z,3.23
2023-02-03T07:33:27.502Z,3.37
2023-02-03T07:38:30.443Z,3.54
2023-02-03T07:43:32.028Z,3.53
2023-02-03T07:48:33.556Z,3.57
2023-02-03T07:53:36.463Z,3.54
2023-02-03T07:58:38.244Z,3.32
2023-02-03T08:03:40.089Z,3.61
2023-02-03T08:08:42.921Z,3.52
2023-02-03T08:13:44.431Z,3.70
2023-02-03T08:18:46.001Z,3.70
2023-02-03T08:23:48.942Z,3.67
2023-02-03T08:28:50.822Z,3.78
2023-02-03T08:33:52.364Z,3.93
2023-02-03T08:38:55.238Z,3.88
2023-02-03T08:43:56.820Z,3.91
2023-02-03T08:48:58.272Z,4.01
2023-02-03T08:54:01.129Z,4.18
2023-02-03T08:59:02.849Z,3.97
2023-02-03T09:04:04.625Z,4.17
2023-02-03T09:09:08.581Z,4.23
2023-02-03T09:14:10.863Z,4.21
2023-02-03T09:19:12.420Z,4.07
2023-02-03T09:24:15.605Z,4.13
2023-02-03T09:29:17.294Z,4.49
2023-02-03T09:34:19.703Z,4.22
2023-02-03T09:39:22.614Z,4.08
2023-02-03T09:44:30.275Z,4.35
2023-02-03T09:49:37.291Z,4.30
2023-02-03T09:54:44.572Z,4.14
2023-02-03T09:59:46.141Z,4.34
2023-02-03T10:04:57.911Z,4.57
2023-02-03T10:10:10.074Z,4.49
2023-02-03T10:15:30.712Z,4.60
2023-02-03T10:20:38.655Z,4.49
2023-02-03T10:25:44.187Z,4.81
2023-02-03T10:30:49.296Z,4.84
2023-02-03T10:35:53.226Z,4.64
2023-02-03T10:40:56.183Z,5.00
2023-02-03T10:45:58.906Z,5.00
2023-02-03T10:51:02.778Z,4.70
2023-02-03T10:56:10.135Z,4.79
2023-02-03T11:01:13.843Z,5.11
2023-02-03T11:06:17.258Z,5.29
2023-02-03T11:11:25.563Z,5.23
2023-02-03T11:16:27.176Z,5.35
2023-02-03T11:21:31.524Z,5.57
2023-02-03T11:26:39.310Z,5.23
2023-02-03T11:31:47.960Z,5.32
2023-02-03T11:36:49.988Z,5.44
2023-02-03T11:41:54.372Z,5.88
2023-02-03T11:46:59.410Z,6.08
2023-02-03T11:52:07.910Z,5.68
2023-02-03T11:57:27.216Z,6.03
2023-02-03T12:02:58.571Z,5.99
2023-02-03T12:08:10.013Z,5.81
2023-02-03T12:13:24.477Z,6.04
2023-02-03T12:18:40.832Z,5.58
2023-02-03T12:23:52.465Z,5.98
2023-02-03T12:29:01.682Z,6.01
2023-02-03T12:34:13.272Z,6.18
2023-02-03T12:39:22.451Z,5.86
2023-02-03T12:44:31.842Z,5.90
2023-02-03T12:49:41.519Z,6.27
2023-02-03T12:54:49.579Z,6.05
2023-02-03T13:00:00.735Z,5.93
2023-02-03T13:05:10.675Z,6.42
2023-02-03T13:10:19.876Z,6.27
2023-02-03T13:15:28.321Z,5.97
2023-02-03T13:20:32.806Z,5.76
2023-02-03T13:25:48.433Z,5.65
2023-02-03T13:31:28.497Z,5.44
2023-02-03T13:37:06.768Z,5.49
2023-02-03T13:42:21.778Z,5.62
2023-02-03T13:47:29.722Z,5.59
2023-02-03T13:52:35.943Z,5.27
2023-02-03T13:57:38.578Z,5.47
2023-02-03T14:02:51.982Z,5.31
2023-02-03T14:07:53.497Z,5.55
2023-02-03T14:12:57.461Z,5.36
2023-02-03T14:18:32.065Z,5.21
2023-02-03T14:23:50.165Z,5.07
2023-02-03T14:28:53.839Z,5.36
2023-02-03T14:34:08.792Z,5.33
2023-02-03T14:39:52.553Z,5.21
2023-02-03T14:45:06.995Z,5.22
2023-02-03T14:56:11.639Z,4.96
2023-02-03T15:01:45.618Z,5.06
2023-02-03T15:06:50.716Z,5.15
2023-02-03T15:11:52.672Z,5.17
2023-02-03T15:16:57.287Z,4.88
2023-02-03T15:22:00.886Z,5.09
2023-02-03T15:27:02.525Z,4.95
2023-02-03T15:32:12.719Z,5.10
2023-02-03T15:37:19.761Z,5.16
2023-02-03T15:42:29.736Z,4.99
2023-02-03T15:47:35.302Z,5.00
2023-02-03T15:52:42.681Z,5.26
2023-02-03T15:57:47.643Z,4.83
2023-02-03T16:02:49.792Z,4.89
2023-02-03T16:07:53.229Z,5.02
2023-02-03T16:13:09.836Z,4.89
2023-02-03T16:18:17.443Z,4.82
2023-02-03T16:23:22.099Z,4.94
2023-02-03T16:28:23.668Z,4.77
2023-02-03T16:33:25.157Z,4.80
2023-02-03T16:38:28.863Z,4.95
2023-02-03T16:43:30.487Z,4.73
2023-02-03T16:48:32.851Z,4.85
2023-02-03T16:53:35.869Z,4.96
2023-02-03T16:58:37.450Z,4.50
2023-02-03T17:03:38.983Z,4.70
2023-02-03T17:08:42.093Z,5.03
2023-02-03T17:13:44.380Z,4.74
2023-02-03T17:18:46.823Z,4.20
2023-02-03T17:23:49.934Z,4.34
2023-02-03T17:28:51.445Z,4.42
2023-02-03T17:33:53.041Z,4.84
2023-02-03T17:54:55.859Z,4.28
2023-02-03T17:59:57.988Z,4.30
2023-02-03T18:05:00.036Z,4.41
2023-02-03T18:10:03.051Z,4.25
2023-02-03T18:15:04.966Z,4.59
2023-02-03T18:20:07.382Z,4.64
2023-02-03T18:25:11.042Z,4.80
2023-02-03T18:30:14.032Z,4.43
2023-02-03T18:35:15.657Z,4.31
2023-02-03T18:40:18.820Z,4.61
2023-02-03T18:45:20.436Z,4.38
2023-02-03T18:50:22.170Z,4.58
2023-02-03T18:55:25.145Z,4.71
2023-02-03T19:00:26.684Z,4.54
2023-02-03T19:05:29.139Z,4.47
2023-02-03T19:10:32.158Z,4.66
2023-02-03T19:15:33.782Z,4.64
2023-02-03T19:20:35.298Z,4.75
2023-02-03T19:25:38.438Z,4.37
2023-02-03T19:30:39.966Z,4.75
2023-02-03T19:35:41.680Z,4.37
2023-02-03T19:40:45.209Z,4.72
2023-02-03T19:45:46.800Z,4.78
2023-02-03T19:50:48.897Z,4.65
2023-02-03T19:55:52.116Z,4.86
2023-02-03T20:01:02.341Z,4.38
2023-02-03T20:06:04.089Z,4.31
2023-02-03T20:11:07.071Z,4.24
2023-02-03T20:16:08.929Z,4.84
2023-02-03T20:21:13.582Z,4.81
2023-02-03T20:26:16.551Z,4.87
2023-02-03T20:31:18.239Z,5.00
2023-02-03T20:36:19.921Z,4.52
2023-02-03T20:41:22.970Z,4.78
2023-02-03T20:46:24.616Z,4.29
2023-02-03T20:51:26.431Z,4.67
2023-02-03T20:56:29.377Z,4.93
2023-02-03T21:01:31.003Z,4.65
2023-02-03T21:06:34.285Z,5.05
2023-02-03T21:11:37.163Z,5.02
2023-02-03T21:16:38.895Z,5.00
2023-02-03T21:21:40.870Z,4.83
2023-02-03T21:26:43.764Z,4.96
2023-02-03T21:31:45.367Z,5.17
2023-02-03T21:36:46.936Z,4.59
2023-02-03T21:41:52.901Z,4.69
2023-02-03T21:46:54.581Z,4.64
2023-02-03T21:51:56.156Z,4.81
2023-02-03T21:56:59.672Z,4.80
2023-02-03T22:02:01.294Z,4.76
2023-02-03T22:07:14.621Z,4.72
2023-02-03T22:12:17.594Z,5.10
2023-02-03T22:17:19.134Z,4.63
2023-02-03T22:22:20.696Z,4.91
2023-02-03T22:27:23.714Z,4.74
2023-02-03T22:32:25.285Z,4.68
2023-02-03T22:37:26.856Z,4.97
2023-02-03T22:42:29.848Z,4.91
2023-02-03T22:47:31.358Z,4.91
2023-02-03T22:52:33.039Z,5.00
2023-02-03T22:57:36.110Z,4.95
2023-02-03T23:02:38.098Z,4.88
2023-02-03T23:07:40.478Z,4.76
2023-02-03T23:12:43.342Z,4.73
2023-02-03T23:17:45.751Z,4.96
2023-02-03T23:22:47.349Z,4.77
2023-02-03T23:27:50.481Z,4.88
2023-02-03T23:32:52.656Z,4.87
2023-02-03T23:37:54.387Z,4.68
2023-02-03T23:42:57.272Z,4.73
2023-02-03T23:47:58.786Z,4.81
2023-02-03T23:53:00.311Z,4.76
2023-02-03T23:58:03.362Z,4.88
